Time;durP1;ratioP1;P1;durP2;ratioP2;P2;SDS_P1;SDS_P2;PMS_P1;PMS_P2;Temp;Humidity;BMP_temperature;BMP_pressure;BME280_temperature;BME280_humidity;BME280_pressure;Samples;Min_cycle;Max_cycle;Signal;HPM_P1;HPM_P2
2023/10/13 00:01:55;;;;;;;7.60;3.70;;;;;;;;;;5073385;28;20486;-80
2023/10/13 00:04:24;;;;;;;7.50;3.30;;;;;;;;;;5070881;28;20489;-81
2023/10/13 00:06:53;;;;;;;9.60;3.60;;;;;;;;;;5067110;28;20454;-81
2023/10/13 00:09:25;;;;;;;10.70;4.30;;;;;;;;;;5068947;28;20564;-80
2023/10/13 00:11:55;;;;;;;11.37;3.60;;;;;;;;;;5071787;28;20457;-80
2023/10/13 00:14:30;;;;;;;12.47;3.57;;;;;;;;;;5071863;28;20524;-80
2023/10/13 00:17:04;;;;;;;13.43;4.03;;;;;;;;;;5070407;28;20464;-80
2023/10/13 00:19:38;;;;;;;13.97;4.40;;;;;;;;;;5068282;28;20449;-80
2023/10/13 00:22:10;;;;;;;7.67;4.10;;;;;;;;;;5070344;28;20496;-80
2023/10/13 00:24:42;;;;;;;12.97;4.50;;;;;;;;;;5067946;28;20479;-81
2023/10/13 00:27:27;;;;;;;11.80;4.30;;;;;;;;;;5068544;28;20504;-80
2023/10/13 00:30:15;;;;;;;14.87;4.03;;;;;;;;;;5072517;28;20461;-78
2023/10/13 00:32:44;;;;;;;14.57;5.10;;;;;;;;;;5071412;28;20469;-78
2023/10/13 00:35:15;;;;;;;9.90;4.20;;;;;;;;;;5069055;28;20492;-79
2023/10/13 00:37:44;;;;;;;11.43;4.90;;;;;;;;;;5070529;28;20496;-78
2023/10/13 00:40:25;;;;;;;24.23;5.63;;;;;;;;;;5071864;28;20475;-80
2023/10/13 00:43:28;;;;;;;8.07;4.30;;;;;;;;;;5067911;28;20461;-80
2023/10/13 00:45:44;;;;;;;11.33;5.23;;;;;;;;;;5072259;28;20694;-80
2023/10/13 00:48:13;;;;;;;15.10;6.43;;;;;;;;;;5071249;28;20457;-79
2023/10/13 00:50:40;;;;;;;20.03;5.57;;;;;;;;;;5069646;28;20457;-80
2023/10/13 00:53:08;;;;;;;13.43;6.00;;;;;;;;;;5071025;28;20484;-80
2023/10/13 00:55:35;;;;;;;10.90;5.87;;;;;;;;;;5073260;28;20453;-80
2023/10/13 00:58:07;;;;;;;13.20;5.57;;;;;;;;;;5071960;28;20445;-80
2023/10/13 01:00:46;;;;;;;14.00;6.43;;;;;;;;;;5076581;28;20503;-79
2023/10/13 01:03:13;;;;;;;13.87;6.13;;;;;;;;;;5093180;28;20503;-79
2023/10/13 01:05:41;;;;;;;13.53;5.90;;;;;;;;;;5094376;28;20452;-79
2023/10/13 01:08:11;;;;;;;14.63;5.67;;;;;;;;;;5095482;28;20456;-80
2023/10/13 01:10:39;;;;;;;12.90;5.60;;;;;;;;;;5094251;28;20480;-80
2023/10/13 01:13:07;;;;;;;15.33;5.40;;;;;;;;;;5093165;28;20456;-80
2023/10/13 01:15:34;;;;;;;9.67;6.10;;;;;;;;;;5095125;28;20471;-80
2023/10/13 01:18:11;;;;;;;15.73;7.07;;;;;;;;;;5093415;28;20460;-80
2023/10/13 01:20:45;;;;;;;12.20;6.40;;;;;;;;;;5094921;28;20444;-79
2023/10/13 01:23:18;;;;;;;10.33;5.77;;;;;;;;;;5093389;28;20484;-81
2023/10/13 01:25:45;;;;;;;13.97;6.57;;;;;;;;;;5092163;28;20484;-80
2023/10/13 01:28:16;;;;;;;15.03;7.60;;;;;;;;;;5093194;28;20448;-83
2023/10/13 01:30:49;;;;;;;14.20;6.40;;;;;;;;;;5092772;28;20527;-80
2023/10/13 01:33:26;;;;;;;14.97;6.77;;;;;;;;;;5093182;28;20432;-78
2023/10/13 01:35:58;;;;;;;12.67;6.43;;;;;;;;;;5090671;28;20444;-79
2023/10/13 01:39:20;;;;;;;13.80;6.83;;;;;;;;;;5093184;28;20456;-79
2023/10/13 01:41:55;;;;;;;16.27;7.20;;;;;;;;;;5083580;28;20480;-79
2023/10/13 01:44:22;;;;;;;12.80;7.57;;;;;;;;;;5094683;28;20448;-79
2023/10/13 01:46:59;;;;;;;12.90;6.90;;;;;;;;;;5093281;28;20521;-79
2023/10/13 01:49:28;;;;;;;15.37;7.40;;;;;;;;;;5093673;28;20471;-80
2023/10/13 01:52:11;;;;;;;16.23;8.00;;;;;;;;;;5094010;28;20452;-80
2023/10/13 01:54:54;;;;;;;13.53;7.37;;;;;;;;;;5079751;28;20444;-82
2023/10/13 01:57:24;;;;;;;11.97;7.50;;;;;;;;;;5089906;28;20483;-82
2023/10/13 01:59:50;;;;;;;13.60;7.57;;;;;;;;;;5091373;28;20452;-81
2023/10/13 02:02:28;;;;;;;12.97;7.70;;;;;;;;;;5093394;28;20515;-80
2023/10/13 02:04:57;;;;;;;19.47;8.50;;;;;;;;;;5093118;28;20459;-79
2023/10/13 02:07:29;;;;;;;14.67;8.00;;;;;;;;;;5092581;28;20463;-80
2023/10/13 02:09:56;;;;;;;12.57;8.00;;;;;;;;;;5094506;28;20448;-80
2023/10/13 02:12:36;;;;;;;15.87;8.20;;;;;;;;;;5096288;28;20508;-82
2023/10/13 02:15:05;;;;;;;12.97;7.93;;;;;;;;;;5096454;28;20462;-78
2023/10/13 02:17:41;;;;;;;14.27;8.07;;;;;;;;;;5095939;28;20472;-80
2023/10/13 02:20:08;;;;;;;17.70;9.10;;;;;;;;;;5093478;28;20950;-79
2023/10/13 02:22:38;;;;;;;18.70;8.90;;;;;;;;;;5091544;28;20472;-80
2023/10/13 02:25:06;;;;;;;14.40;8.10;;;;;;;;;;5091686;28;20455;-78
2023/10/13 02:27:40;;;;;;;15.17;8.67;;;;;;;;;;5087971;28;20545;-80
2023/10/13 02:30:12;;;;;;;17.07;9.00;;;;;;;;;;5085013;28;20898;-80
2023/10/13 02:32:43;;;;;;;19.20;8.23;;;;;;;;;;5091581;28;20452;-78
2023/10/13 02:35:15;;;;;;;16.60;9.20;;;;;;;;;;5089168;28;20468;-78
2023/10/13 02:37:46;;;;;;;14.53;8.37;;;;;;;;;;5090613;28;20445;-79
2023/10/13 02:40:23;;;;;;;16.70;9.33;;;;;;;;;;5088530;28;20462;-78
2023/10/13 02:42:51;;;;;;;17.37;8.70;;;;;;;;;;5088619;28;20503;-79
2023/10/13 02:45:25;;;;;;;19.53;10.17;;;;;;;;;;5089214;28;20471;-80
2023/10/13 02:48:10;;;;;;;18.30;9.63;;;;;;;;;;5084424;28;20476;-80
2023/10/13 02:50:38;;;;;;;16.20;9.07;;;;;;;;;;5087918;28;20453;-79
2023/10/13 02:53:12;;;;;;;17.17;8.80;;;;;;;;;;5087700;28;20445;-79
2023/10/13 02:55:39;;;;;;;17.27;9.53;;;;;;;;;;5083398;28;20472;-80
2023/10/13 02:58:08;;;;;;;17.13;9.67;;;;;;;;;;5084315;28;20460;-79
2023/10/13 03:00:35;;;;;;;18.03;9.40;;;;;;;;;;5085496;28;20460;-77
2023/10/13 03:03:02;;;;;;;16.03;8.87;;;;;;;;;;5084079;28;20469;-79
2023/10/13 03:05:29;;;;;;;17.50;11.10;;;;;;;;;;5082501;28;20722;-80
2023/10/13 03:07:58;;;;;;;13.80;8.93;;;;;;;;;;5084735;28;20490;-80
2023/10/13 03:10:28;;;;;;;16.40;9.90;;;;;;;;;;5083644;28;20504;-79
2023/10/13 03:12:56;;;;;;;20.87;9.00;;;;;;;;;;5088124;28;20448;-80
2023/10/13 03:15:30;;;;;;;18.73;10.93;;;;;;;;;;5083032;28;20463;-78
2023/10/13 03:17:58;;;;;;;19.00;9.10;;;;;;;;;;5084819;28;20449;-79
2023/10/13 03:20:31;;;;;;;23.13;10.13;;;;;;;;;;5087402;28;20433;-79
2023/10/13 03:22:59;;;;;;;18.33;9.90;;;;;;;;;;5089722;28;20485;-80
2023/10/13 03:25:29;;;;;;;15.37;9.50;;;;;;;;;;5086699;28;20436;-78
2023/10/13 03:28:05;;;;;;;20.10;10.87;;;;;;;;;;5087600;28;20453;-79
2023/10/13 03:30:38;;;;;;;16.77;9.60;;;;;;;;;;5087436;28;20525;-78
2023/10/13 03:33:11;;;;;;;20.00;9.73;;;;;;;;;;5087097;28;20483;-78
2023/10/13 03:35:40;;;;;;;15.80;8.97;;;;;;;;;;5081198;28;20460;-79
2023/10/13 03:38:16;;;;;;;17.50;10.83;;;;;;;;;;5079350;28;20536;-78
2023/10/13 03:40:48;;;;;;;19.17;9.90;;;;;;;;;;5083488;28;20518;-79
2023/10/13 03:43:21;;;;;;;19.10;11.43;;;;;;;;;;5082650;28;20481;-79
2023/10/13 03:45:52;;;;;;;16.13;9.40;;;;;;;;;;5083598;28;20486;-80
2023/10/13 03:48:29;;;;;;;16.30;9.30;;;;;;;;;;5084357;28;20567;-79
2023/10/13 03:51:06;;;;;;;19.23;11.80;;;;;;;;;;5083665;28;20480;-80
2023/10/13 03:53:34;;;;;;;21.77;12.43;;;;;;;;;;5086523;28;20471;-80
2023/10/13 03:56:12;;;;;;;20.40;12.17;;;;;;;;;;5086571;28;20456;-79
2023/10/13 03:58:42;;;;;;;25.23;11.97;;;;;;;;;;5087163;28;20463;-80
2023/10/13 04:01:13;;;;;;;19.03;11.37;;;;;;;;;;5084453;28;20510;-81
2023/10/13 04:03:57;;;;;;;23.00;11.83;;;;;;;;;;5080910;28;20484;-79
2023/10/13 04:06:48;;;;;;;17.67;11.40;;;;;;;;;;5084147;28;20463;-80
2023/10/13 04:17:45;;;;;;;23.57;13.57;;;;;;;;;;5079050;28;20862;-80
2023/10/13 04:20:32;;;;;;;25.37;14.43;;;;;;;;;;5084218;28;20929;-80
2023/10/13 04:23:18;;;;;;;30.00;16.87;;;;;;;;;;5078270;28;20492;-79
2023/10/13 04:28:50;;;;;;;33.50;18.90;;;;;;;;;;5081820;28;20423;-78
2023/10/13 04:34:02;;;;;;;31.07;19.23;;;;;;;;;;5082037;28;20665;-78
2023/10/13 04:36:45;;;;;;;33.53;18.57;;;;;;;;;;5086311;28;20444;-79
2023/10/13 04:39:17;;;;;;;40.33;19.50;;;;;;;;;;5082843;28;20467;-80
2023/10/13 04:41:57;;;;;;;39.90;20.20;;;;;;;;;;5082734;28;20444;-79
2023/10/13 04:47:17;;;;;;;37.70;21.33;;;;;;;;;;5067156;28;20429;-80
2023/10/13 04:50:00;;;;;;;35.33;20.30;;;;;;;;;;5079886;28;20452;-81
2023/10/13 04:52:50;;;;;;;35.10;21.60;;;;;;;;;;5080429;28;20445;-81
2023/10/13 04:55:32;;;;;;;36.60;21.63;;;;;;;;;;5080482;28;20452;-81
2023/10/13 04:58:10;;;;;;;37.67;20.00;;;;;;;;;;5076660;28;20711;-80
2023/10/13 05:01:17;;;;;;;42.13;21.97;;;;;;;;;;5077195;28;20911;-80
2023/10/13 05:46:02;;;;;;;42.83;24.17;;;;;;;;;;5060419;28;20453;-78
2023/10/13 05:48:41;;;;;;;39.70;24.67;;;;;;;;;;5055889;28;20665;-80
2023/10/13 06:30:19;;;;;;;36.47;23.13;;;;;;;;;;5025234;28;20446;-78
2023/10/13 06:32:47;;;;;;;35.27;23.77;;;;;;;;;;5025503;28;20435;-80
2023/10/13 06:35:22;;;;;;;39.10;25.07;;;;;;;;;;5051212;28;20449;-81
2023/10/13 06:37:50;;;;;;;30.97;21.97;;;;;;;;;;5076878;28;20839;-80
2023/10/13 06:40:32;;;;;;;32.03;22.27;;;;;;;;;;5083542;28;20468;-80
2023/10/13 06:43:13;;;;;;;35.30;22.37;;;;;;;;;;5082661;28;20915;-78
2023/10/13 06:45:41;;;;;;;33.47;22.43;;;;;;;;;;5082127;28;20809;-80
2023/10/13 06:48:12;;;;;;;31.27;21.67;;;;;;;;;;5079115;28;20754;-79
2023/10/13 06:50:41;;;;;;;33.00;22.77;;;;;;;;;;5064484;28;20457;-79
2023/10/13 06:53:12;;;;;;;32.13;20.73;;;;;;;;;;5064367;28;20468;-79
2023/10/13 06:55:40;;;;;;;28.87;21.17;;;;;;;;;;5062739;28;20583;-78
2023/10/13 06:58:13;;;;;;;27.83;20.40;;;;;;;;;;5061136;28;20441;-79
2023/10/13 07:00:52;;;;;;;25.50;19.20;;;;;;;;;;5062668;28;20799;-79
2023/10/13 07:03:21;;;;;;;23.70;18.67;;;;;;;;;;5059507;28;20783;-80
2023/10/13 07:05:48;;;;;;;26.50;17.60;;;;;;;;;;5077034;28;20448;-79
2023/10/13 07:08:19;;;;;;;29.73;18.20;;;;;;;;;;5104295;28;20457;-80
2023/10/13 07:11:02;;;;;;;28.33;18.77;;;;;;;;;;5107402;28;20472;-79
2023/10/13 07:13:30;;;;;;;24.87;18.93;;;;;;;;;;5107910;28;20451;-80
2023/10/13 07:16:05;;;;;;;24.00;16.40;;;;;;;;;;5109053;28;20435;-82
2023/10/13 07:18:36;;;;;;;22.67;16.20;;;;;;;;;;5110707;28;20447;-79
2023/10/13 07:21:09;;;;;;;23.00;16.30;;;;;;;;;;5109413;28;20483;-80
2023/10/13 07:23:37;;;;;;;23.00;17.30;;;;;;;;;;5106539;28;20861;-80
2023/10/13 07:26:06;;;;;;;19.93;16.37;;;;;;;;;;5100562;28;20521;-80
2023/10/13 07:28:35;;;;;;;21.00;16.07;;;;;;;;;;5101984;28;20684;-79
2023/10/13 07:31:14;;;;;;;21.50;17.70;;;;;;;;;;5103464;28;20513;-79
2023/10/13 07:33:42;;;;;;;22.87;16.00;;;;;;;;;;5101813;28;20439;-79
2023/10/13 07:36:17;;;;;;;22.33;16.20;;;;;;;;;;5077667;28;20520;-79
2023/10/13 07:38:49;;;;;;;23.30;15.83;;;;;;;;;;5065417;28;20468;-81
2023/10/13 07:41:17;;;;;;;20.67;16.20;;;;;;;;;;5064854;28;20446;-81
2023/10/13 07:43:46;;;;;;;20.30;14.83;;;;;;;;;;5060888;28;20484;-80
2023/10/13 07:46:15;;;;;;;17.70;13.63;;;;;;;;;;5062625;28;20462;-79
2023/10/13 07:48:45;;;;;;;18.20;15.57;;;;;;;;;;5058029;28;20454;-80
2023/10/13 07:51:15;;;;;;;19.00;12.23;;;;;;;;;;5067246;28;20511;-79
2023/10/13 07:53:49;;;;;;;16.77;13.97;;;;;;;;;;5057224;28;20488;-79
2023/10/13 07:56:18;;;;;;;19.80;13.80;;;;;;;;;;5058554;28;20454;-80
2023/10/13 07:58:52;;;;;;;15.50;12.00;;;;;;;;;;5063452;28;20453;-79
2023/10/13 08:01:21;;;;;;;14.90;12.47;;;;;;;;;;5064067;28;20518;-79
2023/10/13 08:04:04;;;;;;;18.60;13.30;;;;;;;;;;5076866;28;20491;-80
2023/10/13 08:06:34;;;;;;;18.50;13.60;;;;;;;;;;5073960;28;20540;-80
2023/10/13 08:09:28;;;;;;;18.10;12.43;;;;;;;;;;5069508;28;20464;-80
2023/10/13 08:11:56;;;;;;;17.23;12.90;;;;;;;;;;5083911;28;20888;-80
2023/10/13 08:14:28;;;;;;;16.33;13.43;;;;;;;;;;5084545;28;20452;-81
2023/10/13 08:16:59;;;;;;;15.73;12.10;;;;;;;;;;5079447;28;20480;-79
2023/10/13 08:19:28;;;;;;;18.67;11.60;;;;;;;;;;5063221;28;20466;-80
2023/10/13 08:21:58;;;;;;;16.13;11.53;;;;;;;;;;5066528;28;20450;-79
2023/10/13 08:24:29;;;;;;;15.27;10.70;;;;;;;;;;5066769;28;20477;-80
2023/10/13 08:27:32;;;;;;;12.53;11.03;;;;;;;;;;5064934;28;20524;-80
2023/10/13 08:32:54;;;;;;;13.10;9.63;;;;;;;;;;5079745;28;20532;-79
2023/10/13 08:38:16;;;;;;;13.70;8.30;;;;;;;;;;5084222;28;20432;-78
2023/10/13 08:43:43;;;;;;;10.90;7.40;;;;;;;;;;5067221;28;20491;-78
2023/10/13 08:46:24;;;;;;;15.13;7.20;;;;;;;;;;5080155;28;20763;-80
2023/10/13 08:49:03;;;;;;;17.50;7.13;;;;;;;;;;5074630;28;20544;-79
2023/10/13 08:51:43;;;;;;;8.77;6.30;;;;;;;;;;5073043;28;20541;-78
2023/10/13 08:54:19;;;;;;;7.17;5.53;;;;;;;;;;5067765;28;20461;-79
2023/10/13 08:56:47;;;;;;;10.03;6.40;;;;;;;;;;5062723;28;20453;-78
2023/10/13 08:59:33;;;;;;;15.50;6.00;;;;;;;;;;5070439;28;20448;-80
2023/10/13 09:02:15;;;;;;;9.00;5.70;;;;;;;;;;5069709;28;20514;-79
2023/10/13 09:04:46;;;;;;;12.10;6.13;;;;;;;;;;5074744;28;20481;-79
2023/10/13 09:07:21;;;;;;;9.73;5.00;;;;;;;;;;5082013;28;20457;-78
2023/10/13 09:10:11;;;;;;;7.17;5.47;;;;;;;;;;5071221;28;20476;-80
2023/10/13 09:13:00;;;;;;;7.13;5.17;;;;;;;;;;5058001;28;20552;-80
2023/10/13 09:15:59;;;;;;;8.13;5.47;;;;;;;;;;5061252;28;20461;-80
2023/10/13 09:24:15;;;;;;;7.40;4.57;;;;;;;;;;5073501;28;20538;-79
2023/10/13 09:26:41;;;;;;;7.03;4.40;;;;;;;;;;5081075;28;20456;-80
2023/10/13 09:29:18;;;;;;;5.50;3.87;;;;;;;;;;5070307;28;20528;-80
2023/10/13 09:31:45;;;;;;;6.47;4.07;;;;;;;;;;5069770;28;20487;-80
2023/10/13 09:34:12;;;;;;;5.00;3.60;;;;;;;;;;5068729;28;20460;-78
2023/10/13 09:36:40;;;;;;;8.63;4.27;;;;;;;;;;5067599;28;20524;-80
2023/10/13 09:39:29;;;;;;;5.93;4.10;;;;;;;;;;5067625;28;21115;-80
2023/10/13 09:41:55;;;;;;;6.07;3.73;;;;;;;;;;5084890;28;20485;-81
2023/10/13 09:47:29;;;;;;;7.20;4.53;;;;;;;;;;5073261;28;20447;-80
2023/10/13 09:49:57;;;;;;;6.10;4.03;;;;;;;;;;5076122;28;20498;-79
2023/10/13 09:52:27;;;;;;;6.23;4.53;;;;;;;;;;5060883;28;20509;-79
2023/10/13 09:54:59;;;;;;;6.40;4.27;;;;;;;;;;5058532;28;20659;-82
2023/10/13 09:57:34;;;;;;;8.90;5.27;;;;;;;;;;5062295;28;20480;-80
2023/10/13 10:00:06;;;;;;;6.60;4.00;;;;;;;;;;5059354;28;20518;-80
2023/10/13 10:02:34;;;;;;;6.77;5.20;;;;;;;;;;5018014;28;20527;-78
2023/10/13 10:05:12;;;;;;;7.20;4.97;;;;;;;;;;5019398;28;20491;-80
2023/10/13 10:07:43;;;;;;;8.23;5.17;;;;;;;;;;5017937;28;20451;-80
2023/10/13 10:10:12;;;;;;;7.03;4.63;;;;;;;;;;5021446;28;20470;-81
2023/10/13 10:12:46;;;;;;;10.80;5.30;;;;;;;;;;5043128;28;20522;-80
2023/10/13 10:15:28;;;;;;;8.90;4.83;;;;;;;;;;5038273;28;20525;-79
2023/10/13 10:17:55;;;;;;;7.10;5.17;;;;;;;;;;5029696;28;20466;-81
2023/10/13 10:20:39;;;;;;;8.60;5.80;;;;;;;;;;5031131;28;20500;-78
2023/10/13 10:23:21;;;;;;;10.60;6.40;;;;;;;;;;5030402;28;20453;-79
2023/10/13 10:25:51;;;;;;;8.37;5.23;;;;;;;;;;5018609;28;20491;-79
2023/10/13 10:28:19;;;;;;;9.47;5.73;;;;;;;;;;5020925;28;20469;-77
2023/10/13 10:30:50;;;;;;;11.20;5.10;;;;;;;;;;5024549;28;20451;-77
2023/10/13 10:33:25;;;;;;;8.40;5.67;;;;;;;;;;5024368;28;20447;-78
2023/10/13 10:36:15;;;;;;;7.40;5.43;;;;;;;;;;5029218;28;20457;-78
2023/10/13 10:39:00;;;;;;;12.60;5.50;;;;;;;;;;5041809;28;20744;-79
2023/10/13 10:41:39;;;;;;;8.27;5.17;;;;;;;;;;5036022;28;20453;-79
2023/10/13 10:44:15;;;;;;;10.40;5.93;;;;;;;;;;5024611;28;20486;-79
2023/10/13 10:46:57;;;;;;;10.00;5.33;;;;;;;;;;5034058;28;20461;-80
2023/10/13 10:49:35;;;;;;;8.67;4.10;;;;;;;;;;5045484;28;20527;-80
2023/10/13 10:52:03;;;;;;;12.30;6.13;;;;;;;;;;5043153;28;20455;-81
2023/10/13 10:54:34;;;;;;;9.93;5.40;;;;;;;;;;5025555;28;20466;-79
2023/10/13 10:57:17;;;;;;;8.50;5.37;;;;;;;;;;5034861;28;20464;-79
2023/10/13 10:59:45;;;;;;;10.80;6.90;;;;;;;;;;5020884;28;20517;-80
2023/10/13 11:02:18;;;;;;;7.40;4.77;;;;;;;;;;5065879;28;20503;-80
2023/10/13 11:04:55;;;;;;;7.77;4.97;;;;;;;;;;5076554;28;20488;-81
2023/10/13 11:07:35;;;;;;;8.30;6.00;;;;;;;;;;5068311;28;20822;-80
2023/10/13 11:10:27;;;;;;;7.63;5.40;;;;;;;;;;5059172;28;20499;-79
2023/10/13 11:12:55;;;;;;;7.40;4.77;;;;;;;;;;5066850;28;20875;-78
2023/10/13 11:15:33;;;;;;;8.53;4.47;;;;;;;;;;5067230;28;20457;-79
2023/10/13 11:18:00;;;;;;;7.27;4.60;;;;;;;;;;5071488;28;20504;-79
2023/10/13 11:20:43;;;;;;;8.97;4.30;;;;;;;;;;5065688;28;20477;-79
2023/10/13 11:23:12;;;;;;;7.57;4.33;;;;;;;;;;5069788;28;20455;-79
2023/10/13 11:25:44;;;;;;;7.53;3.30;;;;;;;;;;5064515;28;20461;-78
2023/10/13 11:28:17;;;;;;;8.10;4.07;;;;;;;;;;5069494;28;20469;-79
2023/10/13 11:30:49;;;;;;;9.67;4.07;;;;;;;;;;5070656;28;20449;-81
2023/10/13 11:33:23;;;;;;;10.80;4.67;;;;;;;;;;5076593;28;20457;-78
2023/10/13 11:35:56;;;;;;;8.30;3.87;;;;;;;;;;5073768;28;20462;-81
2023/10/13 11:38:41;;;;;;;12.23;4.50;;;;;;;;;;5059910;28;20469;-80
2023/10/13 11:41:18;;;;;;;8.40;4.27;;;;;;;;;;5075052;28;20461;-79
2023/10/13 11:49:31;;;;;;;7.73;5.30;;;;;;;;;;5072413;28;20454;-80
2023/10/13 11:54:53;;;;;;;6.10;3.20;;;;;;;;;;5040717;28;20461;-79
2023/10/13 11:57:22;;;;;;;8.10;4.20;;;;;;;;;;5069167;28;20468;-79
2023/10/13 12:00:16;;;;;;;8.63;4.27;;;;;;;;;;5059402;28;20468;-79
2023/10/13 12:05:48;;;;;;;9.33;4.13;;;;;;;;;;5038039;28;20848;-80
2023/10/13 12:08:22;;;;;;;6.13;3.30;;;;;;;;;;5031609;28;20470;-79
2023/10/13 12:10:59;;;;;;;8.40;3.80;;;;;;;;;;5031558;28;20463;-79
2023/10/13 12:13:29;;;;;;;6.00;3.30;;;;;;;;;;5028563;28;20538;-80
2023/10/13 12:15:57;;;;;;;6.60;3.93;;;;;;;;;;5036630;28;20452;-79
2023/10/13 12:18:27;;;;;;;10.57;4.30;;;;;;;;;;5030592;28;20459;-79
2023/10/13 12:20:57;;;;;;;8.33;4.80;;;;;;;;;;5037358;28;20572;-80
2023/10/13 12:23:31;;;;;;;10.00;3.50;;;;;;;;;;5029513;28;20463;-81
2023/10/13 12:26:00;;;;;;;6.13;3.10;;;;;;;;;;5024229;28;20454;-80
2023/10/13 12:28:31;;;;;;;15.97;4.20;;;;;;;;;;5035518;28;20458;-79
2023/10/13 12:31:01;;;;;;;6.33;4.67;;;;;;;;;;5039135;28;20466;-80
2023/10/13 12:33:36;;;;;;;7.60;3.60;;;;;;;;;;5040113;28;20454;-79
2023/10/13 12:36:09;;;;;;;9.53;4.63;;;;;;;;;;5041240;28;20458;-79
2023/10/13 12:48:55;;;;;;;6.90;4.00;;;;;;;;;;5040412;28;20490;-79
2023/10/13 12:50:05;;;;;;;7.70;4.10;;;;;;;;;;5032471;28;20422;-78
2023/10/13 12:52:33;;;;;;;13.47;4.83;;;;;;;;;;5033742;28;20519;-78
2023/10/13 12:55:06;;;;;;;6.77;4.30;;;;;;;;;;5031727;28;20467;-78
2023/10/13 12:57:41;;;;;;;5.97;3.20;;;;;;;;;;5031447;28;20454;-81
2023/10/13 13:00:21;;;;;;;7.67;4.33;;;;;;;;;;5044606;28;20528;-80
2023/10/13 13:02:52;;;;;;;10.47;4.87;;;;;;;;;;5023660;28;20494;-78
2023/10/13 13:05:22;;;;;;;9.70;3.73;;;;;;;;;;5022962;28;20760;-80
2023/10/13 13:07:56;;;;;;;9.97;3.83;;;;;;;;;;5038126;28;20470;-80
2023/10/13 13:10:46;;;;;;;5.90;3.73;;;;;;;;;;5046716;28;20429;-79
2023/10/13 13:13:24;;;;;;;11.60;4.83;;;;;;;;;;5046701;28;20459;-81
2023/10/13 13:16:03;;;;;;;8.30;4.40;;;;;;;;;;5042623;28;20501;-80
2023/10/13 13:18:33;;;;;;;15.57;4.77;;;;;;;;;;5036386;28;20446;-78
2023/10/13 13:21:21;;;;;;;9.47;4.77;;;;;;;;;;5046889;28;20462;-81
2023/10/13 13:23:54;;;;;;;7.47;3.27;;;;;;;;;;5042557;28;20912;-80
2023/10/13 13:26:25;;;;;;;9.07;4.40;;;;;;;;;;5044286;28;20903;-82
2023/10/13 13:31:43;;;;;;;10.90;5.23;;;;;;;;;;5025689;28;20486;-80
2023/10/13 13:34:12;;;;;;;11.73;4.77;;;;;;;;;;5028618;28;20462;-79
2023/10/13 13:36:44;;;;;;;10.37;4.17;;;;;;;;;;5026002;28;20522;-80
2023/10/13 13:45:27;;;;;;;9.07;4.50;;;;;;;;;;5017114;28;20482;-79
2023/10/13 13:48:07;;;;;;;11.00;4.27;;;;;;;;;;5015483;28;20447;-78
2023/10/13 13:50:39;;;;;;;7.93;4.97;;;;;;;;;;5016427;28;20478;-80
2023/10/13 13:53:09;;;;;;;12.40;7.57;;;;;;;;;;5014515;28;20546;-79
2023/10/13 13:55:40;;;;;;;10.03;6.10;;;;;;;;;;5023405;28;20448;-81
2023/10/13 13:58:33;;;;;;;10.60;5.13;;;;;;;;;;5028459;28;20458;-80
2023/10/13 14:01:14;;;;;;;10.23;5.67;;;;;;;;;;5039230;28;20477;-80
2023/10/13 14:03:51;;;;;;;10.80;5.00;;;;;;;;;;5064158;28;20461;-79
2023/10/13 14:06:23;;;;;;;12.87;5.73;;;;;;;;;;5069959;28;21038;-80
2023/10/13 14:08:54;;;;;;;10.30;6.27;;;;;;;;;;5066201;28;21029;-79
2023/10/13 14:12:25;;;;;;;13.70;5.90;;;;;;;;;;5068869;28;20499;-82
2023/10/13 14:14:12;;;;;;;12.77;5.60;;;;;;;;;;5065114;28;20450;-79
2023/10/13 14:16:44;;;;;;;9.63;5.53;;;;;;;;;;5083849;28;20686;-79
2023/10/13 14:19:19;;;;;;;11.43;5.27;;;;;;;;;;5082988;28;20805;-79
2023/10/13 14:21:53;;;;;;;14.10;5.10;;;;;;;;;;5081820;28;20906;-79
2023/10/13 14:24:27;;;;;;;7.73;4.20;;;;;;;;;;5100816;28;20529;-81
2023/10/13 14:26:54;;;;;;;8.17;5.10;;;;;;;;;;5104308;28;20478;-79
2023/10/13 14:29:26;;;;;;;7.40;3.43;;;;;;;;;;5100232;28;20467;-82
2023/10/13 14:31:54;;;;;;;11.73;4.70;;;;;;;;;;5086360;28;20456;-79
2023/10/13 14:34:22;;;;;;;13.03;5.47;;;;;;;;;;5084181;28;20519;-79
2023/10/13 14:36:50;;;;;;;8.37;4.70;;;;;;;;;;5084633;28;20477;-81
2023/10/13 14:39:20;;;;;;;19.97;5.43;;;;;;;;;;5083338;28;21007;-80
2023/10/13 14:41:48;;;;;;;12.07;5.23;;;;;;;;;;5081847;28;20817;-79
2023/10/13 14:44:15;;;;;;;10.83;5.37;;;;;;;;;;5081588;28;20516;-79
2023/10/13 14:46:43;;;;;;;11.73;5.77;;;;;;;;;;5085214;28;20560;-80
2023/10/13 14:49:11;;;;;;;12.83;4.97;;;;;;;;;;5079910;28;20752;-79
2023/10/13 14:51:42;;;;;;;16.93;5.73;;;;;;;;;;5081295;28;20565;-78
2023/10/13 14:54:09;;;;;;;10.07;4.80;;;;;;;;;;5086991;28;20456;-80
2023/10/13 14:56:37;;;;;;;7.83;4.60;;;;;;;;;;5069057;28;20457;-76
2023/10/13 14:59:07;;;;;;;10.53;4.83;;;;;;;;;;5060868;28;20461;-79
2023/10/13 15:01:37;;;;;;;12.93;4.60;;;;;;;;;;5061848;28;20466;-79
2023/10/13 15:04:04;;;;;;;11.97;5.70;;;;;;;;;;5061797;28;20579;-80
2023/10/13 15:06:32;;;;;;;7.70;4.80;;;;;;;;;;5060245;28;20496;-80
2023/10/13 15:09:10;;;;;;;10.77;5.30;;;;;;;;;;5061809;28;20464;-80
2023/10/13 15:11:38;;;;;;;10.37;3.90;;;;;;;;;;5063074;28;20807;-79
2023/10/13 15:14:06;;;;;;;11.03;6.83;;;;;;;;;;5059321;28;20556;-80
2023/10/13 15:17:00;;;;;;;8.20;4.97;;;;;;;;;;5061233;28;20453;-78
2023/10/13 15:19:29;;;;;;;11.93;5.63;;;;;;;;;;5060449;28;20454;-80
2023/10/13 15:21:59;;;;;;;11.97;4.70;;;;;;;;;;5062765;28;20523;-80
2023/10/13 15:24:28;;;;;;;13.40;5.90;;;;;;;;;;5064483;28;20552;-80
2023/10/13 15:27:01;;;;;;;14.27;5.43;;;;;;;;;;5061826;28;20441;-78
2023/10/13 15:29:35;;;;;;;19.77;5.27;;;;;;;;;;5062271;28;20445;-78
2023/10/13 15:32:41;;;;;;;9.90;4.80;;;;;;;;;;5063390;28;20580;-81
2023/10/13 15:34:54;;;;;;;10.83;6.03;;;;;;;;;;5062006;28;20445;-80
2023/10/13 15:37:25;;;;;;;13.00;5.77;;;;;;;;;;5064560;28;20536;-79
2023/10/13 15:39:57;;;;;;;19.33;5.63;;;;;;;;;;5059719;28;20450;-79
2023/10/13 15:42:27;;;;;;;14.60;6.87;;;;;;;;;;5060629;28;20468;-79
2023/10/13 15:45:00;;;;;;;8.50;4.93;;;;;;;;;;5063080;28;20524;-79
2023/10/13 15:47:35;;;;;;;12.90;4.40;;;;;;;;;;5068661;28;20450;-79
2023/10/13 15:50:08;;;;;;;10.17;4.93;;;;;;;;;;5062267;28;20464;-80
2023/10/13 15:52:38;;;;;;;11.63;5.57;;;;;;;;;;5042897;28;20461;-80
2023/10/13 15:55:07;;;;;;;12.00;5.03;;;;;;;;;;5061453;28;20448;-79
2023/10/13 15:57:41;;;;;;;9.70;5.70;;;;;;;;;;5059382;28;20484;-77
2023/10/13 16:02:52;;;;;;;10.87;6.47;;;;;;;;;;5060097;28;20652;-82
2023/10/13 16:05:22;;;;;;;12.77;6.03;;;;;;;;;;5058885;28;20465;-80
2023/10/13 16:07:52;;;;;;;8.10;5.20;;;;;;;;;;5056199;28;20453;-79
2023/10/13 16:10:22;;;;;;;13.03;5.13;;;;;;;;;;5061640;28;20523;-79
2023/10/13 16:12:50;;;;;;;12.20;4.83;;;;;;;;;;5057656;28;20984;-79
2023/10/13 16:15:18;;;;;;;9.40;5.23;;;;;;;;;;5056918;28;20450;-79
2023/10/13 16:17:46;;;;;;;8.40;4.70;;;;;;;;;;5060560;28;20438;-79
2023/10/13 16:20:17;;;;;;;11.40;5.47;;;;;;;;;;5080521;28;20449;-79
2023/10/13 16:22:45;;;;;;;9.00;5.00;;;;;;;;;;5079910;28;20511;-81
2023/10/13 16:25:13;;;;;;;15.00;5.40;;;;;;;;;;5080922;28;20797;-78
2023/10/13 16:27:43;;;;;;;9.70;5.40;;;;;;;;;;5083381;28;20482;-79
2023/10/13 16:30:33;;;;;;;14.23;5.53;;;;;;;;;;5078657;28;20564;-78
2023/10/13 16:33:01;;;;;;;13.50;6.13;;;;;;;;;;5081594;28;20477;-79
2023/10/13 16:35:33;;;;;;;12.40;4.40;;;;;;;;;;5079679;28;20852;-79
2023/10/13 16:38:06;;;;;;;12.23;4.63;;;;;;;;;;5078912;28;20491;-79
2023/10/13 16:40:39;;;;;;;15.27;5.60;;;;;;;;;;5083716;28;20999;-80
2023/10/13 16:43:15;;;;;;;11.93;4.50;;;;;;;;;;5080479;28;20461;-80
2023/10/13 16:45:48;;;;;;;12.97;4.80;;;;;;;;;;5081571;28;20480;-80
2023/10/13 16:48:16;;;;;;;11.30;4.93;;;;;;;;;;5081773;28;20523;-80
2023/10/13 16:50:47;;;;;;;15.43;5.07;;;;;;;;;;5062253;28;20445;-79
2023/10/13 16:53:20;;;;;;;8.83;5.17;;;;;;;;;;5056663;28;20540;-78
2023/10/13 16:55:51;;;;;;;15.80;6.23;;;;;;;;;;5056678;28;20512;-81
2023/10/13 16:58:22;;;;;;;12.20;4.43;;;;;;;;;;5058378;28;20464;-79
2023/10/13 17:00:52;;;;;;;9.40;4.60;;;;;;;;;;5063166;28;20544;-80
2023/10/13 17:03:29;;;;;;;11.50;3.80;;;;;;;;;;5067251;28;20487;-79
2023/10/13 17:06:01;;;;;;;12.23;4.50;;;;;;;;;;5069284;28;20493;-79
2023/10/13 17:08:29;;;;;;;13.60;4.30;;;;;;;;;;5061880;28;20514;-79
2023/10/13 17:10:59;;;;;;;12.10;4.97;;;;;;;;;;5058902;28;20476;-79
2023/10/13 17:13:28;;;;;;;10.47;4.60;;;;;;;;;;5062316;28;20795;-80
2023/10/13 17:15:59;;;;;;;12.17;5.23;;;;;;;;;;5056904;28;20453;-79
2023/10/13 17:18:28;;;;;;;10.10;4.30;;;;;;;;;;5059453;28;20685;-80
2023/10/13 17:20:59;;;;;;;12.23;4.10;;;;;;;;;;5063951;28;20456;-81
2023/10/13 17:23:34;;;;;;;9.00;4.27;;;;;;;;;;5064881;28;20462;-80
2023/10/13 17:26:01;;;;;;;11.10;4.60;;;;;;;;;;5056617;28;20491;-80
2023/10/13 17:28:31;;;;;;;11.57;4.27;;;;;;;;;;5057457;28;20454;-79
2023/10/13 17:30:58;;;;;;;7.03;2.97;;;;;;;;;;5065859;28;20464;-80
2023/10/13 17:33:26;;;;;;;10.53;3.77;;;;;;;;;;5076059;28;20464;-79
2023/10/13 17:35:53;;;;;;;10.27;4.10;;;;;;;;;;5080643;28;20451;-80